createdAt,value
2024-02-24T00:00:52.888Z,98740.41
2024-02-24T00:03:22.799Z,98747.31
2024-02-24T00:05:51.073Z,98734.75
2024-02-24T00:08:19.022Z,98732.91
2024-02-24T00:10:47.769Z,98741.47
2024-02-24T00:13:15.388Z,98747.50
2024-02-24T00:18:10.759Z,98737.47
2024-02-24T00:20:38.511Z,98739.16
2024-02-24T00:23:06.148Z,98736.44
2024-02-24T00:25:34.251Z,98733.72
2024-02-24T00:28:01.830Z,98744.84
2024-02-24T00:30:30.616Z,98736.25
2024-02-24T00:32:58.282Z,98735.19
2024-02-24T00:35:29.291Z,98747.13
2024-02-24T00:37:57.008Z,98735.41
2024-02-24T00:40:24.591Z,98733.97
2024-02-24T00:42:52.205Z,98733.72
2024-02-24T00:45:19.766Z,98731.25
2024-02-24T00:47:47.406Z,98736.69
2024-02-24T00:50:15.185Z,98735.03
2024-02-24T00:52:42.779Z,98732.91
2024-02-24T00:55:10.455Z,98732.31
2024-02-24T00:57:38.018Z,98733.34
2024-02-24T01:00:05.962Z,98728.34
2024-02-24T01:02:33.642Z,98727.69
2024-02-24T01:05:01.292Z,98722.03
2024-02-24T01:07:28.922Z,98730.41
2024-02-24T01:09:56.516Z,98728.16
2024-02-24T01:12:24.511Z,98718.09
2024-02-24T01:14:54.497Z,98719.13
2024-02-24T01:17:24.585Z,98715.38
2024-02-24T01:19:52.161Z,98714.75
2024-02-24T01:22:19.752Z,98707.66
2024-02-24T01:24:47.333Z,98712.03
2024-02-24T01:27:14.928Z,98712.03
2024-02-24T01:29:42.610Z,98715.38
2024-02-24T01:32:10.322Z,98718.31
2024-02-24T01:34:38.021Z,98712.88
2024-02-24T01:37:05.683Z,98706.41
2024-02-24T01:39:33.568Z,98713.69
2024-02-24T01:42:02.192Z,98715.81
2024-02-24T01:44:29.809Z,98717.91
2024-02-24T01:46:57.392Z,98714.13
2024-02-24T01:49:25.242Z,98714.97
2024-02-24T01:51:52.929Z,98707.25
2024-02-24T01:54:20.538Z,98710.81
2024-02-24T01:56:48.300Z,98713.31
2024-02-24T01:59:15.990Z,98716.25
2024-02-24T02:01:43.644Z,98715.81
2024-02-24T02:06:38.929Z,98705.78
2024-02-24T02:09:06.760Z,98703.69
2024-02-24T02:11:44.199Z,98704.34
2024-02-24T02:14:19.326Z,98703.72
2024-02-24T02:16:46.975Z,98711.66
2024-02-24T02:19:14.625Z,98708.31
2024-02-24T02:21:42.227Z,98705.16
2024-02-24T02:24:09.767Z,98708.69
2024-02-24T02:26:37.349Z,98710.38
2024-02-24T02:29:04.942Z,98707.88
2024-02-24T02:31:32.508Z,98712.69
2024-02-24T02:34:00.175Z,98718.13
2024-02-24T02:36:28.025Z,98720.03
2024-02-24T02:38:55.611Z,98721.69
2024-02-24T02:41:23.238Z,98729.84
2024-02-24T02:43:50.805Z,98729.25
2024-02-24T02:46:18.399Z,98721.47
2024-02-24T02:48:46.136Z,98713.53
2024-02-24T02:51:13.835Z,98712.50
2024-02-24T02:53:41.605Z,98720.66
2024-02-24T02:56:09.349Z,98727.13
2024-02-24T02:58:36.994Z,98729.63
2024-02-24T03:01:04.595Z,98734.63
2024-02-24T03:03:32.906Z,98731.28
2024-02-24T03:06:02.455Z,98738.41
2024-02-24T03:08:33.976Z,98740.50
2024-02-24T03:11:01.855Z,98739.88
2024-02-24T03:13:29.604Z,98748.88
2024-02-24T03:15:57.280Z,98744.69
2024-02-24T03:18:24.981Z,98749.31
2024-02-24T03:20:52.688Z,98753.09
2024-02-24T03:23:20.360Z,98755.81
2024-02-24T03:25:48.316Z,98761.25
2024-02-24T03:28:16.268Z,98753.91
2024-02-24T03:30:44.117Z,98753.91
2024-02-24T03:33:13.666Z,98753.91
2024-02-24T03:35:41.416Z,98761.25
2024-02-24T03:38:09.209Z,98761.44
2024-02-24T03:40:37.623Z,98768.16
2024-02-24T03:43:05.298Z,98768.16
2024-02-24T03:45:33.747Z,98766.69
2024-02-24T03:48:01.532Z,98778.19
2024-02-24T03:50:29.240Z,98771.94
2024-02-24T03:52:57.459Z,98775.47
2024-02-24T03:55:25.018Z,98778.00
2024-02-24T03:57:52.573Z,98775.91
2024-02-24T04:00:20.132Z,98769.88
2024-02-24T04:02:47.924Z,98774.22
2024-02-24T04:05:15.615Z,98782.81
2024-02-24T04:07:43.182Z,98771.69
2024-02-24T04:10:10.808Z,98770.25
2024-02-24T04:12:38.495Z,98782.38
2024-02-24T04:15:06.108Z,98778.84
2024-02-24T04:17:33.801Z,98782.00
2024-02-24T04:20:01.465Z,98781.19
2024-02-24T04:22:29.022Z,98782.63
2024-02-24T04:24:57.455Z,98782.38
2024-02-24T04:27:25.064Z,98777.81
2024-02-24T04:29:52.691Z,98776.78
2024-02-24T04:32:20.431Z,98780.53
2024-02-24T04:34:48.048Z,98771.75
2024-02-24T04:37:15.621Z,98765.50
2024-02-24T04:39:43.234Z,98768.78
2024-02-24T04:42:10.846Z,98779.91
2024-02-24T04:44:38.542Z,98783.66
2024-02-24T04:47:06.317Z,98782.63
2024-02-24T04:49:34.020Z,98776.56
2024-02-24T04:52:01.608Z,98779.91
2024-02-24T04:54:29.300Z,98773.66
2024-02-24T04:56:56.882Z,98777.38
2024-02-24T04:59:24.740Z,98780.34
2024-02-24T05:01:52.444Z,98780.72
2024-02-24T05:04:22.312Z,98777.81
2024-02-24T05:06:49.947Z,98789.50
2024-02-24T05:09:17.781Z,98792.44
2024-02-24T05:11:45.462Z,98795.16
2024-02-24T05:14:13.166Z,98794.53
2024-02-24T05:16:40.745Z,98786.78
2024-02-24T05:19:08.495Z,98797.66
2024-02-24T05:21:36.413Z,98794.31
2024-02-24T05:24:03.988Z,98802.53
2024-02-24T05:26:31.594Z,98792.47
2024-02-24T05:28:59.216Z,98799.13
2024-02-24T05:31:27.445Z,98805.41
2024-02-24T05:33:55.161Z,98805.00
2024-02-24T05:36:22.791Z,98809.56
2024-02-24T05:38:50.398Z,98806.25
2024-02-24T05:41:18.043Z,98806.66
2024-02-24T05:43:45.852Z,98806.25
2024-02-24T05:46:13.410Z,98801.66
2024-02-24T05:48:41.169Z,98806.03
2024-02-24T05:51:08.791Z,98819.19
2024-02-24T05:53:36.389Z,98818.34
2024-02-24T05:56:04.116Z,98817.72
2024-02-24T05:58:31.855Z,98816.47
2024-02-24T06:01:00.111Z,98824.00
2024-02-24T06:03:27.757Z,98828.38
2024-02-24T06:05:55.386Z,98836.53
2024-02-24T06:08:23.076Z,98827.94
2024-02-24T06:10:50.680Z,98837.16
2024-02-24T06:13:18.262Z,98835.72
2024-02-24T06:15:45.813Z,98844.69
2024-02-24T06:18:17.529Z,98845.97
2024-02-24T06:20:45.388Z,98844.69
2024-02-24T06:23:13.022Z,98849.94
2024-02-24T06:25:40.581Z,98847.41
2024-02-24T06:28:11.868Z,98859.34
2024-02-24T06:30:39.587Z,98855.13
2024-02-24T06:33:09.426Z,98857.47
2024-02-24T06:35:37.452Z,98855.56
2024-02-24T06:38:05.156Z,98869.16
2024-02-24T06:40:41.536Z,98867.72
2024-02-24T06:43:13.637Z,98870.63
2024-02-24T06:45:41.357Z,98876.94
2024-02-24T06:48:09.120Z,98879.41
2024-02-24T06:50:37.101Z,98877.31
2024-02-24T06:53:04.826Z,98877.72
2024-02-24T06:55:32.364Z,98886.09
2024-02-24T06:57:59.963Z,98885.47
2024-02-24T07:00:27.558Z,98889.25
2024-02-24T07:02:55.758Z,98891.97
2024-02-24T07:05:24.221Z,98896.16
2024-02-24T07:07:51.925Z,98887.13
2024-02-24T07:10:19.606Z,98889.84
2024-02-24T07:12:47.159Z,98901.56
2024-02-24T07:15:14.789Z,98902.81
2024-02-24T07:17:42.703Z,98907.41
2024-02-24T07:20:10.762Z,98919.13
2024-02-24T07:22:38.486Z,98916.59
2024-02-24T07:25:06.090Z,98921.19
2024-02-24T07:27:35.119Z,98925.81
2024-02-24T07:30:02.763Z,98924.09
2024-02-24T07:32:30.558Z,98930.59
2024-02-24T07:34:59.849Z,98927.88
2024-02-24T07:37:27.603Z,98930.81
2024-02-24T07:39:55.819Z,98935.81
2024-02-24T07:42:25.624Z,98937.88
2024-02-24T07:44:53.294Z,98940.59
2024-02-24T07:47:21.037Z,98942.50
2024-02-24T07:49:48.780Z,98944.16
2024-02-24T07:52:16.371Z,98941.25
2024-02-24T07:54:44.076Z,98935.78
2024-02-24T07:57:12.170Z,98938.72
2024-02-24T07:59:39.736Z,98944.38
2024-02-24T08:02:07.455Z,98937.88
2024-02-24T08:04:37.197Z,98944.97
2024-02-24T08:07:04.900Z,98946.25
2024-02-24T08:09:32.746Z,98943.75
2024-02-24T08:12:01.017Z,98953.56
2024-02-24T08:14:29.188Z,98955.03
2024-02-24T08:16:56.814Z,98954.22
2024-02-24T08:19:24.462Z,98956.69
2024-02-24T08:21:52.058Z,98965.06
2024-02-24T08:24:19.630Z,98964.25
2024-02-24T08:26:49.105Z,98958.38
2024-02-24T08:29:16.742Z,98959.66
2024-02-24T08:31:44.704Z,98953.56
2024-02-24T08:34:13.934Z,98965.91
2024-02-24T08:36:41.650Z,98973.63
2024-02-24T08:39:09.292Z,98971.75
2024-02-24T08:41:38.469Z,98979.50
2024-02-24T08:44:06.299Z,98981.19
2024-02-24T08:46:33.921Z,98987.66
2024-02-24T08:49:01.573Z,98983.91
2024-02-24T08:51:29.208Z,98984.09
2024-02-24T08:53:56.909Z,98985.16
2024-02-24T08:56:24.697Z,98989.72
2024-02-24T08:58:52.277Z,98996.81
2024-02-24T09:01:20.386Z,98997.22
2024-02-24T09:03:54.400Z,98997.22
2024-02-24T09:06:22.330Z,98997.84
2024-02-24T09:08:50.036Z,99008.09
2024-02-24T09:11:17.734Z,99011.22
2024-02-24T09:13:45.512Z,99012.69
2024-02-24T09:16:13.186Z,99009.09
2024-02-24T09:18:40.982Z,99019.72
2024-02-24T09:21:09.840Z,99022.25
2024-02-24T09:23:38.197Z,99030.16
2024-02-24T09:26:05.825Z,99031.38
2024-02-24T09:28:33.473Z,99032.84
2024-02-24T09:31:01.085Z,99034.53
2024-02-24T09:33:28.770Z,99034.72
2024-02-24T09:35:56.831Z,99036.81
2024-02-24T09:38:24.956Z,99041.81
2024-02-24T09:40:52.561Z,99045.16
2024-02-24T09:43:20.151Z,99057.31
2024-02-24T09:45:47.713Z,99065.03
2024-02-24T09:48:16.044Z,99069.41
2024-02-24T09:50:43.771Z,99070.22
2024-02-24T09:53:11.434Z,99074.19
2024-02-24T09:55:39.173Z,99075.22
2024-02-24T09:58:07.812Z,99075.63
2024-02-24T10:00:35.985Z,99072.72
2024-02-24T10:03:03.779Z,99073.09
2024-02-24T10:05:31.679Z,99074.34
2024-02-24T10:08:00.050Z,99081.25
2024-02-24T10:10:29.589Z,99078.53
2024-02-24T10:12:57.514Z,99080.19
2024-02-24T10:15:25.738Z,99079.97
2024-02-24T10:17:53.362Z,99084.97
2024-02-24T10:20:21.079Z,99081.41
2024-02-24T10:22:48.662Z,99081.81
2024-02-24T10:25:17.158Z,99095.22
2024-02-24T10:27:44.856Z,99100.84
2024-02-24T10:30:12.435Z,99098.13
2024-02-24T10:32:40.485Z,99101.47
2024-02-24T10:35:08.232Z,99102.69
2024-02-24T10:37:49.527Z,99110.41
2024-02-24T10:40:24.185Z,99109.59
2024-02-24T10:42:51.833Z,99115.47
2024-02-24T10:45:19.550Z,99127.84
2024-02-24T10:47:48.763Z,99127.84
2024-02-24T10:50:16.566Z,99122.38
2024-02-24T10:52:44.206Z,99133.28
2024-02-24T10:55:11.985Z,99124.28
2024-02-24T10:57:39.666Z,99129.50
2024-02-24T11:00:07.410Z,99123.00
2024-02-24T11:02:35.044Z,99129.50
2024-02-24T11:05:03.653Z,99138.72
2024-02-24T11:07:31.448Z,99137.06
2024-02-24T11:09:59.082Z,99140.41
2024-02-24T11:12:28.029Z,99142.09
2024-02-24T11:14:57.505Z,99145.00
2024-02-24T11:17:25.534Z,99141.25
2024-02-24T11:19:53.386Z,99152.16
2024-02-24T11:22:21.013Z,99147.53
2024-02-24T11:24:48.600Z,99148.38
2024-02-24T11:27:16.151Z,99149.63
2024-02-24T11:29:45.280Z,99134.94
2024-02-24T11:32:14.143Z,99137.25
2024-02-24T11:34:45.282Z,99139.09
2024-02-24T11:37:13.369Z,99141.59
2024-02-24T11:39:44.581Z,99143.28
2024-02-24T11:42:12.471Z,99142.22
2024-02-24T11:44:40.145Z,99136.56
2024-02-24T11:47:07.722Z,99138.47
2024-02-24T11:49:35.311Z,99136.81
2024-02-24T11:52:03.190Z,99157.09
2024-02-24T11:54:31.822Z,99147.44
2024-02-24T11:57:00.478Z,99146.38
2024-02-24T11:59:29.260Z,99139.91
2024-02-24T12:01:56.840Z,99143.22
2024-02-24T12:04:26.383Z,99135.03
2024-02-24T12:06:53.992Z,99138.63
2024-02-24T12:09:21.694Z,99146.78
2024-02-24T12:11:49.487Z,99155.81
2024-02-24T12:14:17.154Z,99154.13
2024-02-24T12:16:45.465Z,99161.00
2024-02-24T12:19:13.123Z,99162.91
2024-02-24T12:21:42.400Z,99155.56
2024-02-24T12:24:10.672Z,99158.91
2024-02-24T12:26:38.367Z,99165.63
2024-02-24T12:29:06.679Z,99154.72
2024-02-24T12:31:34.213Z,99160.19
2024-02-24T12:34:01.925Z,99163.53
2024-02-24T12:36:30.168Z,99165.44
2024-02-24T12:38:57.799Z,99163.75
2024-02-24T12:41:26.606Z,99174.88
2024-02-24T12:43:54.157Z,99171.75
2024-02-24T12:46:23.446Z,99172.59
2024-02-24T12:48:51.214Z,99162.53
2024-02-24T12:51:18.893Z,99163.34
2024-02-24T12:53:46.557Z,99157.91
2024-02-24T12:56:14.226Z,99154.13
2024-02-24T12:58:43.865Z,99145.94
2024-02-24T13:01:11.446Z,99147.00
2024-02-24T13:03:39.257Z,99146.19
2024-02-24T13:06:07.123Z,99154.56
2024-02-24T13:08:34.840Z,99152.91
2024-02-24T13:11:02.742Z,99156.25
2024-02-24T13:13:31.121Z,99157.06
2024-02-24T13:15:58.670Z,99156.25
2024-02-24T13:18:28.621Z,99152.47
2024-02-24T13:20:56.430Z,99152.47
2024-02-24T13:23:24.034Z,99147.00
2024-02-24T13:25:51.578Z,99151.63
2024-02-24T13:28:19.185Z,99145.34
2024-02-24T13:30:46.779Z,99156.19
2024-02-24T13:33:14.602Z,99164.34
2024-02-24T13:35:42.260Z,99175.41
2024-02-24T13:38:10.183Z,99167.41
2024-02-24T13:40:37.736Z,99185.22
2024-02-24T13:43:05.396Z,99176.81
2024-02-24T13:45:33.122Z,99182.91
2024-02-24T13:48:01.013Z,99193.16
2024-02-24T13:50:28.701Z,99191.28
2024-02-24T13:52:56.302Z,99186.72
2024-02-24T13:55:26.064Z,99208.53
2024-02-24T13:57:53.682Z,99201.78
2024-02-24T14:00:23.861Z,99205.13
2024-02-24T14:02:51.528Z,99212.50
2024-02-24T14:05:19.197Z,99218.97
2024-02-24T14:07:46.838Z,99212.06
2024-02-24T14:10:14.436Z,99225.09
2024-02-24T14:12:41.980Z,99229.94
2024-02-24T14:15:14.019Z,99230.78
2024-02-24T14:17:41.766Z,99231.59
2024-02-24T14:20:19.513Z,99226.59
2024-02-24T14:22:52.837Z,99227.03
2024-02-24T14:25:20.390Z,99231.03
2024-02-24T14:27:47.939Z,99237.75
2024-02-24T14:30:15.969Z,99240.06
2024-02-24T14:32:43.666Z,99234.63
2024-02-24T14:35:11.744Z,99246.59
2024-02-24T14:37:39.296Z,99240.06
2024-02-24T14:40:07.065Z,99232.13
2024-02-24T14:42:34.599Z,99249.53
2024-02-24T14:45:02.290Z,99246.78
2024-02-24T14:47:31.054Z,99247.66
2024-02-24T14:49:58.703Z,99251.22
2024-02-24T14:52:27.169Z,99252.44
2024-02-24T14:54:54.749Z,99255.16
2024-02-24T14:57:22.301Z,99256.84
2024-02-24T14:59:50.051Z,99264.41
2024-02-24T15:02:30.029Z,99262.13
2024-02-24T15:05:05.279Z,99270.50
2024-02-24T15:07:32.841Z,99270.72
2024-02-24T15:10:03.559Z,99263.59
2024-02-24T15:12:31.379Z,99269.03
2024-02-24T15:14:59.129Z,99269.03
2024-02-24T15:17:26.932Z,99281.00
2024-02-24T15:19:54.546Z,99280.19
2024-02-24T15:22:22.415Z,99285.41
2024-02-24T15:24:50.005Z,99285.84
2024-02-24T15:27:17.724Z,99295.06
2024-02-24T15:29:45.458Z,99295.06
2024-02-24T15:32:13.131Z,99299.66
2024-02-24T15:34:40.792Z,99296.34
2024-02-24T15:37:10.783Z,99302.00
2024-02-24T15:39:39.457Z,99303.50
2024-02-24T15:42:07.168Z,99308.94
2024-02-24T15:44:34.898Z,99308.94
2024-02-24T15:47:02.481Z,99320.88
2024-02-24T15:49:30.195Z,99316.25
2024-02-24T15:51:59.236Z,99322.16
2024-02-24T15:54:27.783Z,99321.13
2024-02-24T15:56:55.395Z,99322.97
2024-02-24T15:59:24.129Z,99327.59
2024-02-24T16:01:51.767Z,99330.56
2024-02-24T16:04:19.539Z,99333.47
2024-02-24T16:06:47.255Z,99348.38
2024-02-24T16:09:14.940Z,99345.66
2024-02-24T16:11:42.660Z,99345.00
2024-02-24T16:14:10.282Z,99350.91
2024-02-24T16:16:39.454Z,99350.06
2024-02-24T16:19:09.771Z,99360.13
2024-02-24T16:21:38.764Z,99366.41
2024-02-24T16:24:06.440Z,99365.78
2024-02-24T16:26:34.095Z,99372.69
2024-02-24T16:29:02.328Z,99375.41
2024-02-24T16:31:29.858Z,99384.84
2024-02-24T16:33:57.738Z,99382.31
2024-02-24T16:36:26.841Z,99389.47
2024-02-24T16:38:57.659Z,99388.63
2024-02-24T16:41:25.344Z,99389.91
2024-02-24T16:43:52.902Z,99388.63
2024-02-24T16:46:21.053Z,99396.81
2024-02-24T16:48:48.692Z,99390.72
2024-02-24T16:51:16.319Z,99390.72
2024-02-24T16:53:43.958Z,99387.19
2024-02-24T16:56:11.590Z,99389.69
2024-02-24T16:58:39.226Z,99387.81
2024-02-24T17:01:06.841Z,99395.34
2024-02-24T17:03:34.448Z,99399.13
2024-02-24T17:06:03.470Z,99406.47
2024-02-24T17:08:33.151Z,99409.59
2024-02-24T17:11:01.090Z,99402.03
2024-02-24T17:13:28.905Z,99404.13
2024-02-24T17:15:56.503Z,99409.19
2024-02-24T17:18:31.346Z,99419.25
2024-02-24T17:21:04.084Z,99416.53
2024-02-24T17:23:31.832Z,99427.19
2024-02-24T17:26:00.368Z,99424.69
2024-02-24T17:28:27.923Z,99426.59
2024-02-24T17:30:56.036Z,99429.31
2024-02-24T17:33:23.617Z,99429.72
2024-02-24T17:35:51.361Z,99424.69
2024-02-24T17:38:21.348Z,99431.81
2024-02-24T17:40:49.777Z,99437.69
2024-02-24T17:43:17.354Z,99443.13
2024-02-24T17:45:44.923Z,99439.75
2024-02-24T17:48:12.600Z,99447.75
2024-02-24T17:50:40.352Z,99449.63
2024-02-24T17:53:08.803Z,99446.91
2024-02-24T17:55:36.552Z,99457.81
2024-02-24T17:58:04.746Z,99455.91
2024-02-24T18:03:00.155Z,99461.94
2024-02-24T18:05:27.821Z,99459.06
2024-02-24T18:07:55.473Z,99461.94
2024-02-24T18:10:23.119Z,99470.31
2024-02-24T18:12:50.718Z,99461.13
2024-02-24T18:15:18.434Z,99467.81
2024-02-24T18:17:46.160Z,99475.34
2024-02-24T18:20:13.858Z,99473.88
2024-02-24T18:22:43.955Z,99474.06
2024-02-24T18:25:13.355Z,99474.06
2024-02-24T18:27:41.075Z,99472.41
2024-02-24T18:30:08.962Z,99468.03
2024-02-24T18:32:37.103Z,99471.56
2024-02-24T18:35:04.760Z,99469.69
2024-02-24T18:37:32.556Z,99476.78
2024-02-24T18:40:03.251Z,99486.22
2024-02-24T18:42:30.979Z,99481.00
2024-02-24T18:44:58.746Z,99479.75
2024-02-24T18:47:26.587Z,99485.81
2024-02-24T18:49:54.733Z,99487.50
2024-02-24T18:52:22.493Z,99482.88
2024-02-24T18:54:50.193Z,99477.00
2024-02-24T18:57:17.812Z,99486.63
2024-02-24T18:59:45.548Z,99492.28
2024-02-24T19:02:14.067Z,99488.31
2024-02-24T19:04:41.850Z,99495.63
2024-02-24T19:07:12.075Z,99490.38
2024-02-24T19:09:42.233Z,99493.75
2024-02-24T19:12:10.451Z,99486.84
2024-02-24T19:14:48.239Z,99487.66
2024-02-24T19:17:19.881Z,99486.84
2024-02-24T19:19:49.796Z,99489.13
2024-02-24T19:22:17.942Z,99488.91
2024-02-24T19:24:45.697Z,99488.31
2024-02-24T19:27:13.658Z,99501.06
2024-02-24T19:29:44.846Z,99505.66
2024-02-24T19:32:13.467Z,99501.28
2024-02-24T19:34:41.284Z,99510.69
2024-02-24T19:37:10.634Z,99512.16
2024-02-24T19:39:39.332Z,99513.00
2024-02-24T19:42:07.008Z,99500.44
2024-02-24T19:44:34.868Z,99500.22
2024-02-24T19:47:05.509Z,99503.78
2024-02-24T19:49:33.410Z,99502.13
2024-02-24T19:52:01.139Z,99503.16
2024-02-24T19:54:28.769Z,99498.97
2024-02-24T19:56:56.568Z,99506.28
2024-02-24T19:59:24.340Z,99497.91
2024-02-24T20:01:52.004Z,99500.84
2024-02-24T20:04:19.639Z,99494.34
2024-02-24T20:06:47.541Z,99489.94
2024-02-24T20:09:15.349Z,99489.94
2024-02-24T20:11:42.959Z,99489.34
2024-02-24T20:14:10.696Z,99485.75
2024-02-24T20:16:38.266Z,99488.47
2024-02-24T20:19:06.076Z,99486.81
2024-02-24T20:21:34.040Z,99492.06
2024-02-24T20:24:01.858Z,99494.78
2024-02-24T20:26:29.495Z,99504.19
2024-02-24T20:28:57.265Z,99494.56
2024-02-24T20:31:25.480Z,99497.88
2024-02-24T20:33:59.773Z,99495.38
2024-02-24T20:36:31.229Z,99496.22
2024-02-24T20:38:59.992Z,99490.78
2024-02-24T20:41:29.844Z,99501.66
2024-02-24T20:43:58.938Z,99501.66
2024-02-24T20:46:26.746Z,99509.81
2024-02-24T20:48:54.538Z,99511.91
2024-02-24T20:51:22.194Z,99518.00
2024-02-24T20:53:50.127Z,99513.59
2024-02-24T20:56:17.997Z,99514.84
2024-02-24T20:58:45.622Z,99510.06
2024-02-24T21:01:13.195Z,99511.72
2024-02-24T21:03:42.640Z,99502.06
2024-02-24T21:06:10.259Z,99508.56
2024-02-24T21:08:39.246Z,99501.25
2024-02-24T21:11:08.199Z,99511.31
2024-02-24T21:13:35.865Z,99517.13
2024-02-24T21:16:03.624Z,99514.41
2024-02-24T21:18:31.964Z,99517.13
2024-02-24T21:20:59.806Z,99511.31
2024-02-24T21:23:27.548Z,99519.84
2024-02-24T21:25:55.235Z,99519.84
2024-02-24T21:28:22.969Z,99508.34
2024-02-24T21:30:50.693Z,99507.72
2024-02-24T21:33:18.489Z,99504.16
2024-02-24T21:35:46.407Z,99500.19
2024-02-24T21:38:14.088Z,99502.25
2024-02-24T21:40:41.622Z,99510.44
2024-02-24T21:43:09.371Z,99506.88
2024-02-24T21:45:36.964Z,99513.78
2024-02-24T21:48:04.683Z,99515.03
2024-02-24T21:50:32.396Z,99515.03
2024-02-24T21:52:59.983Z,99515.22
2024-02-24T21:55:27.662Z,99512.50
2024-02-24T21:57:55.216Z,99518.78
2024-02-24T22:00:22.863Z,99513.56
2024-02-24T22:02:50.490Z,99523.38
2024-02-24T22:05:18.385Z,99518.13
2024-02-24T22:07:46.233Z,99523.38
2024-02-24T22:10:13.831Z,99517.53
2024-02-24T22:12:41.430Z,99510.63
2024-02-24T22:15:10.873Z,99519.84
2024-02-24T22:17:41.587Z,99524.44
2024-02-24T22:20:10.054Z,99523.19
2024-02-24T22:22:37.713Z,99524.22
2024-02-24T22:25:05.307Z,99524.22
2024-02-24T22:27:33.070Z,99528.66
2024-02-24T22:30:08.740Z,99520.25
2024-02-24T22:32:43.606Z,99519.63
2024-02-24T22:35:11.427Z,99517.13
2024-02-24T22:37:39.105Z,99527.16
2024-02-24T22:40:06.760Z,99528.19
2024-02-24T22:42:35.420Z,99521.72
2024-02-24T22:45:03.608Z,99534.91
2024-02-24T22:47:31.474Z,99534.69
2024-02-24T22:49:59.364Z,99524.69
2024-02-24T22:52:27.075Z,99529.72
2024-02-24T22:54:55.267Z,99532.44
2024-02-24T22:57:23.437Z,99529.72
2024-02-24T22:59:51.125Z,99535.16
2024-02-24T23:02:18.844Z,99543.31
2024-02-24T23:04:46.589Z,99542.25
2024-02-24T23:07:14.390Z,99544.97
2024-02-24T23:09:42.265Z,99546.47
2024-02-24T23:12:10.007Z,99555.25
2024-02-24T23:14:37.680Z,99545.63
2024-02-24T23:17:05.280Z,99545.63
2024-02-24T23:19:33.535Z,99540.38
2024-02-24T23:22:01.265Z,99542.91
2024-02-24T23:24:28.966Z,99546.69
2024-02-24T23:26:58.881Z,99548.53
2024-02-24T23:29:27.868Z,99543.75
2024-02-24T23:31:55.647Z,99538.50
2024-02-24T23:34:23.325Z,99539.34
2024-02-24T23:36:51.049Z,99542.91
2024-02-24T23:39:18.613Z,99540.19
2024-02-24T23:41:46.260Z,99543.09
2024-02-24T23:44:13.896Z,99549.19
2024-02-24T23:46:41.483Z,99549.41
2024-02-24T23:49:09.577Z,99553.16
2024-02-24T23:51:37.506Z,99553.16
2024-02-24T23:54:05.259Z,99558.81
2024-02-24T23:56:35.766Z,99562.78
2024-02-24T23:59:04.022Z,99559.00
